createdAt,value
2019-04-03T00:01:56.379Z,87.80
2019-04-03T00:03:59.973Z,87.60
2019-04-03T00:06:05.342Z,87.70
2019-04-03T00:08:07.313Z,87.80
2019-04-03T00:10:11.049Z,87.50
2019-04-03T00:12:14.599Z,87.80
2019-04-03T00:14:18.098Z,88.30
2019-04-03T00:16:21.755Z,88.00
2019-04-03T00:18:25.182Z,88.10
2019-04-03T00:20:28.726Z,88.30
2019-04-03T00:22:32.261Z,87.90
2019-04-03T00:24:35.827Z,86.90
2019-04-03T00:26:39.418Z,87.00
2019-04-03T00:28:43.006Z,86.90
2019-04-03T00:30:47.015Z,86.50
2019-04-03T00:32:53.166Z,86.10
2019-04-03T00:34:54.073Z,85.60
2019-04-03T00:36:57.670Z,85.80
2019-04-03T00:39:01.269Z,86.30
2019-04-03T00:41:04.868Z,85.30
2019-04-03T00:43:08.324Z,85.60
2019-04-03T00:45:11.961Z,85.20
2019-04-03T00:47:15.592Z,84.50
2019-04-03T00:49:19.177Z,85.20
2019-04-03T00:51:22.685Z,85.80
2019-04-03T00:53:27.631Z,86.10
2019-04-03T00:55:29.840Z,86.70
2019-04-03T00:57:33.442Z,86.80
2019-04-03T00:59:36.988Z,87.20
2019-04-03T01:01:40.444Z,86.90
2019-04-03T01:03:43.890Z,87.10
2019-04-03T01:05:47.316Z,87.20
2019-04-03T01:07:50.777Z,87.50
2019-04-03T01:09:54.210Z,87.80
2019-04-03T01:11:58.810Z,88.00
2019-04-03T01:14:01.637Z,87.90
2019-04-03T01:16:05.375Z,88.10
2019-04-03T01:18:08.945Z,87.90
2019-04-03T01:20:12.449Z,88.50
2019-04-03T01:22:16.005Z,88.20
2019-04-03T01:24:19.504Z,88.30
2019-04-03T01:26:23.132Z,87.80
2019-04-03T01:28:26.800Z,87.80
2019-04-03T01:30:31.374Z,87.90
2019-04-03T01:32:34.780Z,88.60
2019-04-03T01:34:38.312Z,88.10
2019-04-03T01:36:41.944Z,87.90
2019-04-03T01:38:45.499Z,87.40
2019-04-03T01:40:50.593Z,87.50
2019-04-03T01:42:53.349Z,87.50
2019-04-03T01:44:56.239Z,87.90
2019-04-03T01:46:59.887Z,87.90
2019-04-03T01:49:03.975Z,88.30
2019-04-03T01:51:07.648Z,87.60
2019-04-03T01:53:11.101Z,87.50
2019-04-03T01:55:15.177Z,87.70
2019-04-03T01:57:18.744Z,87.10
2019-04-03T01:59:22.254Z,87.20
2019-04-03T02:01:25.827Z,87.70
2019-04-03T02:03:29.584Z,87.70
2019-04-03T02:05:33.200Z,88.10
2019-04-03T02:07:36.827Z,87.50
2019-04-03T02:09:40.746Z,87.60
2019-04-03T02:11:44.344Z,88.10
2019-04-03T02:13:48.090Z,88.10
2019-04-03T02:15:52.558Z,88.10
2019-04-03T02:17:55.285Z,88.10
2019-04-03T02:19:58.717Z,88.50
2019-04-03T02:22:02.279Z,88.20
2019-04-03T02:24:05.983Z,88.40
2019-04-03T02:26:09.640Z,88.60
2019-04-03T02:28:13.084Z,88.50
2019-04-03T02:30:16.925Z,88.60
2019-04-03T02:32:23.143Z,88.10
2019-04-03T02:34:23.740Z,88.60
2019-04-03T02:36:27.965Z,87.90
2019-04-03T02:38:32.103Z,88.40
2019-04-03T02:40:36.008Z,88.20
2019-04-03T02:42:41.567Z,88.50
2019-04-03T02:44:42.986Z,88.40
2019-04-03T02:46:46.398Z,88.00
2019-04-03T02:48:49.875Z,88.20
2019-04-03T02:50:53.369Z,88.00
2019-04-03T02:52:58.617Z,88.10
2019-04-03T02:55:00.472Z,88.10
2019-04-03T02:57:03.976Z,88.60
2019-04-03T02:59:07.708Z,88.60
2019-04-03T03:01:11.254Z,88.60
2019-04-03T03:03:17.238Z,89.10
2019-04-03T03:05:18.189Z,88.90
2019-04-03T03:07:21.613Z,89.00
2019-04-03T03:09:25.103Z,89.00
2019-04-03T03:11:28.778Z,88.70
2019-04-03T03:13:34.551Z,88.90
2019-04-03T03:15:36.879Z,88.80
2019-04-03T03:17:40.382Z,88.40
2019-04-03T03:19:44.805Z,88.60
2019-04-03T03:21:48.950Z,88.60
2019-04-03T03:23:55.122Z,89.00
2019-04-03T03:25:56.103Z,88.00
2019-04-03T03:27:59.664Z,88.30
2019-04-03T03:30:27.749Z,88.20
2019-04-03T03:32:16.508Z,88.30
2019-04-03T03:34:11.366Z,87.80
2019-04-03T03:36:19.535Z,88.10
2019-04-03T03:38:18.828Z,87.60
2019-04-03T03:40:22.454Z,87.80
2019-04-03T03:42:27.953Z,87.70
2019-04-03T03:44:29.718Z,87.60
2019-04-03T03:46:33.222Z,87.50
2019-04-03T03:48:36.911Z,87.80
2019-04-03T03:50:40.612Z,87.30
2019-04-03T03:52:44.328Z,87.80
2019-04-03T03:54:51.086Z,88.20
2019-04-03T03:56:51.407Z,87.80
2019-04-03T03:58:55.493Z,88.10
2019-04-03T04:01:00.458Z,88.30
2019-04-03T04:03:02.938Z,88.30
2019-04-03T04:05:10.456Z,88.50
2019-04-03T04:07:10.134Z,88.90
2019-04-03T04:09:17.224Z,88.60
2019-04-03T04:11:17.655Z,88.10
2019-04-03T04:13:21.233Z,88.00
2019-04-03T04:15:28.781Z,88.00
2019-04-03T04:17:28.766Z,87.00
2019-04-03T04:19:32.462Z,86.40
2019-04-03T04:21:35.668Z,85.40
2019-04-03T04:23:39.663Z,85.00
2019-04-03T04:25:44.381Z,84.50
2019-04-03T04:27:46.552Z,85.00
2019-04-03T04:29:50.155Z,84.00
2019-04-03T04:31:54.757Z,83.50
2019-04-03T04:33:58.176Z,83.00
2019-04-03T04:36:01.621Z,80.90
2019-04-03T04:38:05.273Z,82.50
2019-04-03T04:40:08.787Z,82.80
2019-04-03T04:42:12.300Z,81.80
2019-04-03T04:44:15.977Z,82.40
2019-04-03T04:46:19.456Z,82.20
2019-04-03T04:48:23.101Z,82.20
2019-04-03T04:50:26.648Z,82.40
2019-04-03T04:52:30.057Z,82.50
2019-04-03T04:54:33.517Z,82.70
2019-04-03T04:56:38.321Z,83.00
2019-04-03T04:58:42.939Z,83.60
2019-04-03T05:00:47.056Z,84.20
2019-04-03T05:02:48.885Z,82.60
2019-04-03T05:04:51.977Z,82.10
2019-04-03T05:06:55.708Z,81.90
2019-04-03T05:08:59.245Z,82.70
2019-04-03T05:11:03.024Z,82.50
2019-04-03T05:13:06.820Z,83.00
2019-04-03T05:15:11.648Z,83.40
2019-04-03T05:17:15.777Z,83.10
2019-04-03T05:19:19.855Z,83.50
2019-04-03T05:21:23.019Z,83.00
2019-04-03T05:23:26.506Z,82.60
2019-04-03T05:25:30.440Z,83.20
2019-04-03T05:27:34.402Z,84.40
2019-04-03T05:29:37.443Z,84.50
2019-04-03T05:31:41.011Z,85.20
2019-04-03T05:33:45.255Z,85.60
2019-04-03T05:35:48.730Z,85.10
2019-04-03T05:37:52.202Z,86.10
2019-04-03T05:39:55.894Z,86.20
2019-04-03T05:41:59.771Z,86.40
2019-04-03T05:44:02.863Z,86.90
2019-04-03T05:46:06.373Z,87.60
2019-04-03T05:48:12.669Z,87.20
2019-04-03T05:50:13.497Z,87.20
2019-04-03T05:52:16.751Z,87.60
2019-04-03T05:54:20.174Z,87.50
2019-04-03T05:56:23.787Z,88.60
2019-04-03T05:58:27.041Z,87.60
2019-04-03T06:00:30.553Z,87.60
2019-04-03T06:02:36.329Z,87.60
2019-04-03T06:04:40.733Z,87.50
2019-04-03T06:06:46.063Z,88.00
2019-04-03T06:08:47.074Z,88.00
2019-04-03T06:10:50.584Z,87.90
2019-04-03T06:12:53.942Z,88.30
2019-04-03T06:14:57.535Z,89.10
2019-04-03T06:17:00.795Z,89.40
2019-04-03T06:19:06.417Z,90.00
2019-04-03T06:21:07.679Z,89.90
2019-04-03T06:23:11.143Z,89.80
2019-04-03T06:25:14.605Z,89.10
2019-04-03T06:27:19.567Z,90.00
2019-04-03T06:29:21.545Z,90.10
2019-04-03T06:31:26.421Z,90.10
2019-04-03T06:33:31.307Z,90.20
2019-04-03T06:35:34.623Z,90.20
2019-04-03T06:37:35.344Z,90.10
2019-04-03T06:39:38.855Z,90.60
2019-04-03T06:41:46.715Z,90.60
2019-04-03T06:43:52.622Z,90.70
2019-04-03T06:45:56.981Z,90.90
2019-04-03T06:47:57.707Z,90.60
2019-04-03T06:50:01.123Z,90.80
2019-04-03T06:52:04.616Z,91.10
2019-04-03T06:54:08.359Z,91.10
2019-04-03T06:56:11.533Z,91.20
2019-04-03T06:58:15.101Z,90.70
2019-04-03T07:00:18.533Z,90.80
2019-04-03T07:02:21.932Z,90.60
2019-04-03T07:04:25.363Z,90.50
2019-04-03T07:06:28.894Z,90.50
2019-04-03T07:08:35.647Z,90.50
2019-04-03T07:10:36.550Z,90.30
2019-04-03T07:12:39.712Z,90.30
2019-04-03T07:14:43.480Z,90.30
2019-04-03T07:16:49.005Z,90.50
2019-04-03T07:18:52.677Z,90.30
2019-04-03T07:20:56.158Z,90.60
2019-04-03T07:22:59.603Z,90.40
2019-04-03T07:25:03.904Z,90.20
2019-04-03T07:27:07.451Z,89.80
2019-04-03T07:29:12.288Z,90.40
2019-04-03T07:31:15.311Z,90.40
2019-04-03T07:33:19.654Z,90.20
2019-04-03T07:35:39.262Z,90.30
2019-04-03T07:37:55.085Z,90.50
2019-04-03T07:40:02.374Z,90.90
2019-04-03T07:42:09.838Z,91.40
2019-04-03T07:44:16.471Z,91.60
2019-04-03T07:46:23.481Z,91.70
2019-04-03T07:48:29.680Z,91.80
2019-04-03T07:50:36.960Z,92.10
2019-04-03T07:52:40.224Z,92.10
2019-04-03T07:54:43.631Z,92.30
2019-04-03T07:56:47.006Z,92.40
2019-04-03T07:58:50.447Z,92.50
2019-04-03T08:00:53.966Z,92.60
2019-04-03T08:02:57.388Z,92.70
2019-04-03T08:05:00.972Z,92.70
2019-04-03T08:07:04.587Z,92.30
2019-04-03T08:09:09.949Z,92.40
2019-04-03T08:11:14.615Z,92.30
2019-04-03T08:13:15.372Z,91.90
2019-04-03T08:15:18.773Z,92.00
2019-04-03T08:17:22.238Z,91.90
2019-04-03T08:19:25.691Z,92.20
2019-04-03T08:21:30.475Z,92.10
2019-04-03T08:23:32.695Z,92.50
2019-04-03T08:25:36.244Z,92.00
2019-04-03T08:27:39.648Z,91.80
2019-04-03T08:29:43.412Z,92.00
2019-04-03T08:31:48.434Z,92.10
2019-04-03T08:33:50.248Z,92.20
2019-04-03T08:35:53.730Z,92.20
2019-04-03T08:37:57.160Z,92.50
2019-04-03T08:40:00.773Z,92.40
2019-04-03T08:42:04.083Z,92.30
2019-04-03T08:44:08.628Z,92.20
2019-04-03T08:46:11.072Z,92.30
2019-04-03T08:48:16.396Z,92.10
2019-04-03T08:50:17.891Z,92.10
2019-04-03T08:52:21.296Z,92.40
2019-04-03T08:54:24.909Z,92.40
2019-04-03T08:56:28.375Z,92.60
2019-04-03T08:58:31.615Z,93.10
2019-04-03T09:00:36.045Z,92.70
2019-04-03T09:02:42.481Z,92.60
2019-04-03T09:04:42.717Z,92.90
2019-04-03T09:06:46.543Z,93.00
2019-04-03T09:08:49.620Z,93.10
2019-04-03T09:10:53.050Z,93.00
2019-04-03T09:12:56.495Z,93.40
2019-04-03T09:15:00.003Z,93.50
2019-04-03T09:17:03.596Z,93.50
2019-04-03T09:19:09.574Z,93.80
2019-04-03T09:21:10.477Z,93.90
2019-04-03T09:23:13.868Z,93.90
2019-04-03T09:25:17.562Z,94.30
2019-04-03T09:27:20.926Z,94.40
2019-04-03T09:29:24.371Z,94.60
2019-04-03T09:31:27.849Z,93.80
2019-04-03T09:33:31.643Z,93.80
2019-04-03T09:35:34.829Z,93.60
2019-04-03T09:37:38.813Z,94.00
2019-04-03T09:39:42.685Z,94.20
2019-04-03T09:41:45.383Z,93.80
2019-04-03T09:43:48.984Z,94.00
2019-04-03T09:45:52.248Z,94.20
2019-04-03T09:47:55.715Z,94.40
2019-04-03T09:49:59.139Z,94.30
2019-04-03T09:52:02.675Z,94.40
2019-04-03T09:54:06.086Z,95.00
2019-04-03T09:56:09.559Z,95.10
2019-04-03T09:58:12.963Z,94.90
2019-04-03T10:00:16.364Z,95.40
2019-04-03T10:02:20.674Z,95.30
2019-04-03T10:04:24.154Z,95.70
2019-04-03T10:06:26.791Z,95.70
2019-04-03T10:08:30.361Z,95.70
2019-04-03T10:10:33.895Z,95.90
2019-04-03T10:12:37.349Z,95.70
2019-04-03T10:14:40.840Z,95.50
2019-04-03T10:16:44.272Z,95.50
2019-04-03T10:18:50.642Z,95.30
2019-04-03T10:20:54.186Z,94.50
2019-04-03T10:22:57.607Z,94.70
2019-04-03T10:25:04.801Z,93.60
2019-04-03T10:27:04.469Z,94.50
2019-04-03T10:29:08.111Z,95.50
2019-04-03T10:31:11.697Z,95.80
2019-04-03T10:33:14.772Z,95.50
2019-04-03T10:35:18.380Z,96.00
2019-04-03T10:37:21.732Z,96.20
2019-04-03T10:39:25.521Z,95.90
2019-04-03T10:41:29.628Z,95.80
2019-04-03T10:43:32.069Z,96.00
2019-04-03T10:45:35.856Z,95.30
2019-04-03T10:47:42.405Z,95.90
2019-04-03T10:49:42.765Z,95.40
2019-04-03T10:51:45.973Z,95.50
2019-04-03T10:53:51.536Z,95.80
2019-04-03T10:55:53.009Z,95.40
2019-04-03T10:57:56.563Z,95.80
2019-04-03T11:00:00.073Z,95.70
2019-04-03T11:02:03.534Z,95.50
2019-04-03T11:04:06.977Z,96.10
2019-04-03T11:06:10.383Z,96.10
2019-04-03T11:08:13.828Z,96.10
2019-04-03T11:10:17.694Z,95.90
2019-04-03T11:12:20.792Z,96.20
2019-04-03T11:14:24.318Z,95.20
2019-04-03T11:16:27.834Z,95.70
2019-04-03T11:18:31.322Z,94.40
2019-04-03T11:20:36.695Z,94.20
2019-04-03T11:22:41.575Z,94.30
2019-04-03T11:24:42.654Z,94.80
2019-04-03T11:26:47.319Z,94.40
2019-04-03T11:28:51.438Z,93.40
2019-04-03T11:30:56.336Z,92.70
2019-04-03T11:32:58.792Z,92.40
2019-04-03T11:35:02.249Z,92.90
2019-04-03T11:37:06.377Z,92.70
2019-04-03T11:39:14.951Z,93.30
2019-04-03T11:41:18.023Z,93.50
2019-04-03T11:43:16.345Z,93.00
2019-04-03T11:45:19.823Z,92.10
2019-04-03T11:47:23.599Z,91.70
2019-04-03T11:49:26.857Z,92.70
2019-04-03T11:51:30.312Z,91.80
2019-04-03T11:53:37.064Z,91.30
2019-04-03T11:55:44.290Z,91.50
2019-04-03T11:57:49.353Z,93.00
2019-04-03T11:59:51.229Z,91.60
2019-04-03T12:01:54.781Z,90.60
2019-04-03T12:03:58.427Z,91.70
2019-04-03T12:06:01.788Z,90.10
2019-04-03T12:08:05.345Z,91.10
2019-04-03T12:10:08.803Z,91.60
2019-04-03T12:12:12.254Z,90.60
2019-04-03T12:14:17.085Z,90.40
2019-04-03T12:16:19.519Z,87.80
2019-04-03T12:18:22.929Z,87.40
2019-04-03T12:20:26.174Z,86.30
2019-04-03T12:22:29.573Z,90.00
2019-04-03T12:24:33.048Z,90.30
2019-04-03T12:26:36.651Z,90.10
2019-04-03T12:28:40.106Z,89.10
2019-04-03T12:30:43.694Z,88.20
2019-04-03T12:32:49.016Z,89.10
2019-04-03T12:34:50.979Z,88.80
2019-04-03T12:36:54.792Z,88.60
2019-04-03T12:38:57.912Z,87.10
2019-04-03T12:41:03.774Z,86.30
2019-04-03T12:43:05.385Z,87.50
2019-04-03T12:45:08.874Z,86.70
2019-04-03T12:47:14.012Z,88.80
2019-04-03T12:49:15.939Z,90.10
2019-04-03T12:51:20.348Z,89.60
2019-04-03T12:53:22.860Z,87.30
2019-04-03T12:55:26.879Z,87.60
2019-04-03T12:57:32.150Z,87.00
2019-04-03T12:59:33.244Z,87.00
2019-04-03T13:01:36.759Z,86.70
2019-04-03T13:03:40.702Z,87.90
2019-04-03T13:05:43.907Z,89.30
2019-04-03T13:07:47.699Z,88.70
2019-04-03T13:09:50.756Z,85.70
2019-04-03T13:11:54.163Z,87.30
2019-04-03T13:13:59.476Z,90.10
2019-04-03T13:16:01.087Z,87.70
2019-04-03T13:18:05.530Z,87.20
2019-04-03T13:20:09.202Z,89.70
2019-04-03T13:22:12.598Z,90.00
2019-04-03T13:24:17.471Z,87.70
2019-04-03T13:26:19.712Z,86.40
2019-04-03T13:28:22.988Z,82.40
2019-04-03T13:30:26.750Z,84.80
2019-04-03T13:32:29.966Z,86.40
2019-04-03T13:34:33.535Z,89.40
2019-04-03T13:36:36.941Z,85.00
2019-04-03T13:38:40.435Z,85.60
2019-04-03T13:40:43.923Z,86.00
2019-04-03T13:42:49.259Z,87.60
2019-04-03T13:44:50.824Z,83.70
2019-04-03T13:46:54.255Z,86.70
2019-04-03T13:48:58.165Z,84.40
2019-04-03T13:51:01.365Z,80.40
2019-04-03T13:53:05.310Z,81.30
2019-04-03T13:55:08.763Z,82.50
2019-04-03T13:57:14.178Z,81.60
2019-04-03T13:59:15.501Z,79.70
2019-04-03T14:01:19.191Z,80.60
2019-04-03T14:03:22.437Z,82.70
2019-04-03T14:05:27.830Z,82.90
2019-04-03T14:07:31.068Z,83.60
2019-04-03T14:09:32.952Z,80.10
2019-04-03T14:11:36.515Z,83.60
2019-04-03T14:13:42.612Z,81.20
2019-04-03T14:15:43.339Z,79.80
2019-04-03T14:17:55.189Z,82.70
2019-04-03T14:19:52.185Z,82.30
2019-04-03T14:21:54.221Z,82.60
2019-04-03T14:23:57.591Z,81.80
2019-04-03T14:26:05.675Z,81.20
2019-04-03T14:28:04.746Z,83.50
2019-04-03T14:30:11.182Z,82.60
2019-04-03T14:32:14.038Z,84.40
2019-04-03T14:34:15.239Z,84.40
2019-04-03T14:36:19.603Z,80.40
2019-04-03T14:38:22.372Z,83.50
2019-04-03T14:40:25.890Z,84.30
2019-04-03T14:42:29.541Z,84.50
2019-04-03T14:44:33.104Z,85.50
2019-04-03T14:46:36.502Z,83.80
2019-04-03T14:48:40.375Z,82.00
2019-04-03T14:50:43.628Z,80.80
2019-04-03T14:52:48.728Z,81.90
2019-04-03T14:54:50.671Z,82.20
2019-04-03T14:56:54.661Z,82.10
2019-04-03T14:58:58.923Z,81.90
2019-04-03T15:01:01.216Z,81.60
2019-04-03T15:03:05.319Z,81.50
2019-04-03T15:05:08.747Z,83.30
2019-04-03T15:07:12.059Z,81.60
2019-04-03T15:09:15.589Z,82.50
2019-04-03T15:11:21.248Z,83.40
2019-04-03T15:13:22.288Z,79.40
2019-04-03T15:15:27.566Z,81.70
2019-04-03T15:17:29.400Z,79.30
2019-04-03T15:19:32.604Z,80.20
2019-04-03T15:21:36.445Z,78.10
2019-04-03T15:23:41.537Z,77.70
2019-04-03T15:25:43.654Z,81.10
2019-04-03T15:27:46.561Z,84.30
2019-04-03T15:29:50.164Z,83.40
2019-04-03T15:31:53.590Z,79.70
2019-04-03T15:33:57.111Z,78.40
2019-04-03T15:36:02.069Z,77.70
2019-04-03T15:38:04.165Z,78.80
2019-04-03T15:40:08.061Z,76.80
2019-04-03T15:42:12.137Z,77.20
2019-04-03T15:44:15.680Z,78.40
2019-04-03T15:46:19.225Z,78.50
2019-04-03T15:48:22.884Z,79.10
2019-04-03T15:50:28.012Z,81.00
2019-04-03T15:52:29.618Z,79.60
2019-04-03T15:54:33.801Z,80.10
2019-04-03T15:56:36.751Z,79.80
2019-04-03T15:58:40.696Z,81.00
2019-04-03T16:00:43.878Z,78.10
2019-04-03T16:02:47.898Z,79.70
2019-04-03T16:04:51.616Z,79.10
2019-04-03T16:06:55.473Z,79.80
2019-04-03T16:08:58.948Z,79.80
2019-04-03T16:11:02.028Z,80.90
2019-04-03T16:13:05.609Z,78.70
2019-04-03T16:15:09.843Z,79.40
2019-04-03T16:17:13.576Z,79.90
2019-04-03T16:19:17.462Z,79.80
2019-04-03T16:21:22.398Z,80.00
2019-04-03T16:23:24.101Z,80.70
2019-04-03T16:25:27.795Z,79.70
2019-04-03T16:27:31.239Z,80.60
2019-04-03T16:29:34.692Z,82.80
2019-04-03T16:31:38.521Z,83.80
2019-04-03T16:33:41.516Z,82.70
2019-04-03T16:35:45.990Z,81.90
2019-04-03T16:37:50.022Z,82.10
2019-04-03T16:39:51.928Z,81.60
2019-04-03T16:41:55.391Z,83.60
2019-04-03T16:43:58.801Z,82.00
2019-04-03T16:46:02.255Z,83.10
2019-04-03T16:48:05.692Z,82.90
2019-04-03T16:50:09.748Z,82.90
2019-04-03T16:52:12.912Z,83.10
2019-04-03T16:54:16.686Z,81.30
2019-04-03T16:56:20.208Z,82.20
2019-04-03T16:58:26.448Z,83.70
2019-04-03T17:00:27.499Z,83.10
2019-04-03T17:02:30.796Z,83.60
2019-04-03T17:04:35.634Z,82.20
2019-04-03T17:06:37.817Z,83.10
2019-04-03T17:08:41.376Z,81.90
2019-04-03T17:10:44.826Z,82.90
2019-04-03T17:12:50.112Z,83.60
2019-04-03T17:14:54.482Z,82.90
2019-04-03T17:16:55.172Z,83.90
2019-04-03T17:18:58.672Z,83.50
2019-04-03T17:21:02.107Z,83.20
2019-04-03T17:23:05.594Z,82.80
2019-04-03T17:25:09.180Z,83.70
2019-04-03T17:27:12.988Z,84.10
2019-04-03T17:29:16.232Z,84.30
2019-04-03T17:31:21.617Z,83.90
2019-04-03T17:33:23.424Z,83.60
2019-04-03T17:35:26.796Z,83.80
2019-04-03T17:37:31.018Z,84.10
2019-04-03T17:39:35.775Z,84.20
2019-04-03T17:41:37.936Z,84.70
2019-04-03T17:43:43.139Z,84.70
2019-04-03T17:45:46.143Z,85.10
2019-04-03T17:47:49.657Z,84.70
2019-04-03T17:49:51.454Z,84.90
2019-04-03T17:51:54.896Z,84.70
2019-04-03T17:53:58.312Z,84.00
2019-04-03T17:56:01.799Z,84.60
2019-04-03T17:58:05.231Z,84.60
2019-04-03T18:00:10.295Z,85.60
2019-04-03T18:02:13.812Z,85.90
2019-04-03T18:04:20.081Z,86.20
2019-04-03T18:06:20.741Z,86.00
2019-04-03T18:08:24.178Z,86.00
2019-04-03T18:10:27.632Z,86.80
2019-04-03T18:12:31.135Z,87.00
2019-04-03T18:14:34.901Z,86.70
2019-04-03T18:16:39.069Z,87.10
2019-04-03T18:18:42.529Z,87.80
2019-04-03T18:20:47.188Z,88.20
2019-04-03T18:22:51.243Z,88.50
2019-04-03T18:24:54.716Z,89.20
2019-04-03T18:26:58.160Z,90.20
2019-04-03T18:29:01.616Z,90.10
2019-04-03T18:31:05.128Z,89.80
2019-04-03T18:33:08.613Z,90.00
2019-04-03T18:35:12.051Z,90.30
2019-04-03T18:37:15.480Z,90.40
2019-04-03T18:39:18.949Z,90.70
2019-04-03T18:41:22.404Z,91.10
2019-04-03T18:43:25.839Z,91.40
2019-04-03T18:45:29.289Z,91.70
2019-04-03T18:47:41.268Z,92.00
2019-04-03T18:49:36.243Z,91.90
2019-04-03T18:51:39.648Z,91.60
2019-04-03T18:53:43.067Z,91.90
2019-04-03T18:55:46.513Z,92.00
2019-04-03T18:57:50.458Z,90.80
2019-04-03T18:59:56.202Z,86.80
2019-04-03T19:01:56.840Z,90.60
2019-04-03T19:04:00.256Z,91.70
2019-04-03T19:06:03.820Z,92.00
2019-04-03T19:08:12.865Z,92.20
2019-04-03T19:10:10.898Z,92.70
2019-04-03T19:12:14.308Z,93.20
2019-04-03T19:14:32.393Z,93.30
2019-04-03T19:16:29.531Z,93.30
2019-04-03T19:18:24.724Z,93.30
2019-04-03T19:20:28.149Z,92.80
2019-04-03T19:22:31.604Z,92.80
2019-04-03T19:24:35.056Z,93.60
2019-04-03T19:26:38.484Z,93.50
2019-04-03T19:28:41.898Z,93.70
2019-04-03T19:30:45.512Z,93.80
2019-04-03T19:32:48.969Z,93.60
2019-04-03T19:34:53.127Z,93.80
2019-04-03T19:36:55.904Z,93.90
2019-04-03T19:38:59.309Z,93.80
2019-04-03T19:41:02.892Z,93.80
2019-04-03T19:43:06.351Z,94.00
2019-04-03T19:45:12.760Z,93.90
2019-04-03T19:47:13.351Z,94.40
2019-04-03T19:49:16.760Z,94.60
2019-04-03T19:51:20.184Z,94.50
2019-04-03T19:53:23.620Z,95.40
2019-04-03T19:55:27.065Z,95.00
2019-04-03T19:57:30.466Z,95.00
2019-04-03T19:59:34.602Z,95.10
2019-04-03T20:01:39.043Z,95.00
2019-04-03T20:03:40.792Z,95.20
2019-04-03T20:05:44.287Z,95.50
2019-04-03T20:07:47.670Z,95.40
2019-04-03T20:09:51.141Z,95.50
2019-04-03T20:11:54.539Z,95.40
2019-04-03T20:13:57.979Z,95.50
2019-04-03T20:16:01.456Z,95.40
2019-04-03T20:18:04.951Z,95.60
2019-04-03T20:20:08.503Z,95.60
2019-04-03T20:22:12.034Z,95.50
2019-04-03T20:24:15.440Z,95.60
2019-04-03T20:26:18.880Z,95.80
2019-04-03T20:28:24.163Z,95.40
2019-04-03T20:30:25.784Z,95.50
2019-04-03T20:32:29.180Z,95.60
2019-04-03T20:34:38.957Z,95.30
2019-04-03T20:36:42.390Z,95.60
2019-04-03T20:38:45.807Z,95.70
2019-04-03T20:40:49.241Z,95.80
2019-04-03T20:42:52.664Z,95.50
2019-04-03T20:44:56.085Z,95.80
2019-04-03T20:46:59.526Z,95.80
2019-04-03T20:49:03.351Z,95.60
2019-04-03T20:51:08.790Z,95.50
2019-04-03T20:53:10.132Z,95.50
2019-04-03T20:55:13.578Z,95.90
2019-04-03T20:57:16.973Z,96.10
2019-04-03T20:59:20.399Z,95.50
2019-04-03T21:01:23.845Z,95.70
2019-04-03T21:03:27.298Z,95.90
2019-04-03T21:05:30.696Z,96.20
2019-04-03T21:07:34.093Z,96.20
2019-04-03T21:09:37.528Z,96.10
2019-04-03T21:11:40.953Z,96.30
2019-04-03T21:13:44.402Z,96.10
2019-04-03T21:15:47.872Z,96.10
2019-04-03T21:17:51.297Z,96.30
2019-04-03T21:19:54.743Z,96.10
2019-04-03T21:21:59.730Z,96.00
2019-04-03T21:24:02.028Z,95.90
2019-04-03T21:26:07.247Z,96.00
2019-04-03T21:28:08.973Z,96.10
2019-04-03T21:30:12.212Z,96.20
2019-04-03T21:32:15.645Z,96.10
2019-04-03T21:34:19.059Z,96.00
2019-04-03T21:36:22.544Z,96.00
2019-04-03T21:38:26.143Z,95.80
2019-04-03T21:40:29.748Z,95.80
2019-04-03T21:42:33.160Z,96.00
2019-04-03T21:44:36.571Z,96.00
2019-04-03T21:46:40.400Z,96.00
2019-04-03T21:48:44.793Z,96.00
2019-04-03T21:50:47.968Z,95.80
2019-04-03T21:52:53.490Z,95.80
2019-04-03T21:54:53.813Z,96.10
2019-04-03T21:56:57.216Z,96.20
2019-04-03T21:59:00.756Z,96.10
2019-04-03T22:01:23.352Z,96.00
2019-04-03T22:03:26.807Z,95.80
2019-04-03T22:05:30.246Z,95.60
2019-04-03T22:07:33.784Z,95.50
2019-04-03T22:09:37.220Z,95.60
2019-04-03T22:11:40.728Z,95.50
2019-04-03T22:13:44.205Z,95.60
2019-04-03T22:15:47.607Z,96.10
2019-04-03T22:17:52.591Z,96.20
2019-04-03T22:19:54.501Z,95.60
2019-04-03T22:21:57.940Z,95.20
2019-04-03T22:24:01.416Z,95.30
2019-04-03T22:26:04.840Z,94.80
2019-04-03T22:28:08.243Z,94.90
2019-04-03T22:30:11.727Z,94.90
2019-04-03T22:32:15.136Z,94.90
2019-04-03T22:34:18.528Z,95.00
2019-04-03T22:36:21.976Z,95.00
2019-04-03T22:38:25.436Z,94.90
2019-04-03T22:40:28.830Z,94.80
2019-04-03T22:42:32.275Z,94.90
2019-04-03T22:44:35.691Z,95.00
2019-04-03T22:46:39.248Z,95.20
2019-04-03T22:48:43.439Z,95.10
2019-04-03T22:50:46.989Z,95.50
2019-04-03T22:52:50.406Z,95.50
2019-04-03T22:54:53.808Z,95.50
2019-04-03T22:56:57.304Z,95.60
2019-04-03T22:59:00.697Z,95.70
2019-04-03T23:01:04.183Z,95.80
2019-04-03T23:03:07.586Z,95.60
2019-04-03T23:05:11.013Z,95.50
2019-04-03T23:07:14.452Z,95.80
2019-04-03T23:09:17.865Z,95.70
2019-04-03T23:11:21.336Z,95.70
2019-04-03T23:13:24.869Z,95.70
2019-04-03T23:15:28.409Z,95.90
2019-04-03T23:17:31.868Z,95.70
2019-04-03T23:19:35.291Z,95.90
2019-04-03T23:21:38.745Z,95.90
2019-04-03T23:23:42.248Z,95.90
2019-04-03T23:25:45.676Z,96.10
2019-04-03T23:27:49.316Z,96.00
2019-04-03T23:29:52.925Z,96.10
2019-04-03T23:31:56.524Z,96.00
2019-04-03T23:33:59.955Z,96.10
2019-04-03T23:36:03.513Z,95.90
2019-04-03T23:38:07.564Z,95.30
2019-04-03T23:40:11.275Z,95.60
2019-04-03T23:42:14.917Z,95.80
2019-04-03T23:44:18.427Z,95.80
2019-04-03T23:46:22.010Z,95.70
2019-04-03T23:48:25.429Z,95.60
2019-04-03T23:50:29.068Z,95.40
2019-04-03T23:52:32.532Z,95.30
2019-04-03T23:54:35.987Z,95.40
2019-04-03T23:56:39.569Z,95.40
2019-04-03T23:58:43.179Z,95.60
